Time,TemperatureF,DewpointF,PressureIn,WindDirection,WindDirectionDegrees,WindSpeedMPH,WindSpeedGustMPH,Humidity,HourlyPrecipIn,Conditions,Clouds,dailyrainin,SoftwareType,DateUTC
2013-02-04 09:00:00,24.0,9.7,30.22,ESE,111,3.0,5.0,54,0.00,CLR,SCT,0.00,WeatherDisplay:10.37,2013-02-04 14:00:00,
2013-02-04 09:30:00,24.0,9.7,30.22,ESE,111,3.0,4.0,54,0.00,CLR,SCT,0.00,WeatherDisplay:10.37,2013-02-04 14:30:00,
2013-02-04 10:00:00,24.0,9.7,30.22,ESE,111,3.0,4.0,54,0.00,CLR,SCT,0.00,WeatherDisplay:10.37,2013-02-04 15:00:00,
2013-02-04 10:30:00,24.0,9.7,30.22,ESE,111,3.0,4.0,54,0.00,SCT,SCT,0.00,WeatherDisplay:10.37,2013-02-04 15:30:00,
2013-02-04 11:00:00,24.0,9.7,30.22,ESE,111,3.0,4.0,54,0.00,SCT,SCT,0.00,WeatherDisplay:10.37,2013-02-04 16:00:00,
2013-02-04 11:30:00,24.0,9.7,30.22,ESE,111,3.0,4.0,54,0.00,BKN,SCT,0.00,WeatherDisplay:10.37,2013-02-04 16:30:00,
2013-02-04 12:00:00,24.0,9.7,30.22,ESE,111,3.0,4.0,54,0.00,BKN,SCT,0.00,WeatherDisplay:10.37,2013-02-04 17:00:00,
2013-02-04 12:30:00,24.0,9.7,30.22,ESE,111,3.0,4.0,54,0.00,BKN,SCT,0.00,WeatherDisplay:10.37,2013-02-04 17:30:00,
2013-02-04 13:00:00,24.0,9.7,30.22,ESE,111,3.0,4.0,54,0.00,BKN,SCT,0.00,WeatherDisplay:10.37,2013-02-04 18:00:00,
2013-02-04 13:30:00,24.0,9.7,30.22,ESE,111,3.0,4.0,54,0.00,OVC,SCT,0.00,WeatherDisplay:10.37,2013-02-04 18:30:00,
2013-02-04 14:00:00,24.0,9.7,30.22,ESE,111,3.0,4.0,54,0.00,OVC,SCT,0.00,WeatherDisplay:10.37,2013-02-04 19:00:00,
2013-02-04 14:30:00,24.0,9.7,30.22,ESE,111,3.0,4.0,54,0.00,BKN,SCT,0.00,WeatherDisplay:10.37,2013-02-04 19:30:00,
2013-02-04 15:00:00,24.0,9.7,30.22,ESE,111,3.0,4.0,54,0.00,BKN,SCT,0.00,WeatherDisplay:10.37,2013-02-04 20:00:00,
2013-02-04 15:30:00,24.0,9.7,30.22,ESE,111,3.0,4.0,54,0.00,SCT,SCT,0.00,WeatherDisplay:10.37,2013-02-04 20:30:00,
2013-02-04 16:00:00,24.0,9.7,30.22,ESE,111,3.0,4.0,54,0.00,SCT,SCT,0.00,WeatherDisplay:10.37,2013-02-04 21:00:00,
2013-02-04 16:30:00,24.0,9.7,30.22,ESE,111,3.0,4.0,54,0.00,BKN,SCT,0.00,WeatherDisplay:10.37,2013-02-04 21:30:00,
2013-02-04 17:00:00,24.0,9.7,30.22,ESE,111,3.0,4.0,54,0.00,BKN,SCT,0.00,WeatherDisplay:10.37,2013-02-04 22:00:00,
2013-02-04 17:29:00,24.0,9.7,30.22,ESE,111,3.0,4.0,54,0.00,SCT,SCT,0.00,WeatherDisplay:10.37,2013-02-04 22:29:00,
2013-02-04 18:00:00,24.0,9.7,30.22,ESE,111,3.0,4.0,54,0.00,SCT,SCT,0.00,WeatherDisplay:10.37,2013-02-04 23:00:00,
2013-02-04 18:29:00,24.0,9.7,30.22,ESE,111,3.0,4.0,54,0.00,CLR,SCT,0.00,WeatherDisplay:10.37,2013-02-04 23:29:00,
2013-02-04 19:00:00,24.0,9.7,30.22,ESE,111,3.0,4.0,54,0.00,CLR,SCT,0.00,WeatherDisplay:10.37,2013-02-05 00:00:00,
2013-02-04 19:30:00,24.0,9.7,30.22,ESE,111,3.0,4.0,54,0.00,CLR,SCT,0.00,WeatherDisplay:10.37,2013-02-05 00:30:00,
2013-02-04 20:00:00,24.0,9.7,30.22,ESE,111,3.0,4.0,54,0.00,CLR,SCT,0.00,WeatherDisplay:10.37,2013-02-05 01:00:00,
2013-02-04 20:30:00,24.0,9.7,30.22,ESE,111,3.0,4.0,54,0.00,CLR,SCT,0.00,WeatherDisplay:10.37,2013-02-05 01:30:00,
2013-02-04 21:30:00,19.2,9.4,29.91,WNW,288,6.0,13.0,65,0.00,CLR,SCT,0.00,WeatherDisplay:10.37,2013-02-05 02:30:00,
2013-02-04 21:59:00,18.7,9.2,29.91,WSW,251,3.0,9.0,66,0.00,CLR,SCT,0.00,WeatherDisplay:10.37,2013-02-05 02:59:00,
2013-02-04 22:30:00,18.0,9.9,29.92,SE,142,2.0,5.0,70,0.00,CLR,SCT,0.00,WeatherDisplay:10.37,2013-02-05 03:30:00,
2013-02-04 23:00:00,17.0,10.2,29.92,SE,133,0.0,5.0,74,0.00,CLR,SCT,0.00,WeatherDisplay:10.37,2013-02-05 04:00:00,
2013-02-04 23:29:00,15.8,10.4,29.93,SSE,153,1.0,5.0,79,0.00,CLR,SCT,0.00,WeatherDisplay:10.37,2013-02-05 04:29:00,